createdAt,value
2023-05-08T00:01:54.774Z,15.31
2023-05-08T00:04:22.413Z,15.32
2023-05-08T00:06:51.544Z,15.32
2023-05-08T00:09:20.524Z,15.32
2023-05-08T00:11:48.525Z,15.32
2023-05-08T00:14:16.102Z,15.31
2023-05-08T00:16:43.813Z,15.31
2023-05-08T00:19:11.419Z,15.31
2023-05-08T00:21:39.063Z,15.30
2023-05-08T00:24:07.051Z,15.31
2023-05-08T00:26:34.587Z,15.32
2023-05-08T00:29:02.124Z,15.32
2023-05-08T00:31:29.742Z,15.31
2023-05-08T00:33:57.313Z,15.31
2023-05-08T00:36:24.845Z,15.31
2023-05-08T00:38:52.446Z,15.29
2023-05-08T00:41:20.070Z,15.29
2023-05-08T00:43:47.639Z,15.29
2023-05-08T00:46:15.769Z,15.29
2023-05-08T00:48:44.206Z,15.27
2023-05-08T00:51:13.028Z,15.25
2023-05-08T00:53:43.358Z,15.25
2023-05-08T00:56:15.284Z,15.25
2023-05-08T00:58:44.571Z,15.23
2023-05-08T01:01:12.418Z,15.22
2023-05-08T01:03:40.870Z,15.20
2023-05-08T01:06:08.896Z,15.18
2023-05-08T01:08:36.796Z,15.17
2023-05-08T01:11:17.994Z,15.18
2023-05-08T01:14:06.942Z,15.18
2023-05-08T01:16:55.972Z,15.17
2023-05-08T01:19:57.847Z,15.19
2023-05-08T01:23:07.354Z,15.16
2023-05-08T01:26:05.323Z,15.16
2023-05-08T01:29:16.276Z,15.16
2023-05-08T01:31:46.791Z,15.12
2023-05-08T01:34:27.779Z,15.11
2023-05-08T01:37:03.344Z,15.07
2023-05-08T01:39:44.494Z,15.05
2023-05-08T01:42:43.407Z,15.02
2023-05-08T01:45:22.700Z,15.00
2023-05-08T01:48:05.373Z,15.01
2023-05-08T01:50:46.186Z,15.01
2023-05-08T01:53:24.397Z,14.98
2023-05-08T01:55:59.753Z,14.98
2023-05-08T01:58:30.653Z,14.97
2023-05-08T02:01:02.316Z,14.95
2023-05-08T02:03:33.719Z,14.95
2023-05-08T02:06:03.379Z,14.95
2023-05-08T02:08:33.445Z,14.96
2023-05-08T02:11:04.139Z,14.98
2023-05-08T02:13:34.961Z,14.97
2023-05-08T02:16:05.477Z,14.97
2023-05-08T02:18:34.620Z,14.96
2023-05-08T02:21:05.477Z,14.97
2023-05-08T02:23:34.801Z,14.97
2023-05-08T02:26:04.998Z,14.96
2023-05-08T02:28:33.575Z,14.96
2023-05-08T02:31:01.880Z,14.96
2023-05-08T02:33:31.595Z,14.97
2023-05-08T02:36:01.408Z,14.95
2023-05-08T02:38:31.849Z,14.97
2023-05-08T02:41:03.829Z,14.96
2023-05-08T02:43:32.051Z,14.98
2023-05-08T02:46:12.908Z,14.97
2023-05-08T02:48:58.561Z,14.95
2023-05-08T02:51:39.645Z,14.92
2023-05-08T02:54:36.619Z,14.90
2023-05-08T02:57:33.318Z,14.87
2023-05-08T03:00:37.721Z,14.86
2023-05-08T03:03:21.274Z,14.83
2023-05-08T03:05:59.822Z,14.83
2023-05-08T03:08:34.662Z,14.84
2023-05-08T03:11:12.309Z,14.84
2023-05-08T03:13:43.280Z,14.86
2023-05-08T03:16:20.580Z,14.84
2023-05-08T03:18:59.524Z,14.83
2023-05-08T03:21:31.800Z,14.81
2023-05-08T03:24:03.145Z,14.80
2023-05-08T03:26:31.001Z,14.75
2023-05-08T03:28:59.247Z,14.74
2023-05-08T03:31:33.042Z,14.73
2023-05-08T03:34:02.962Z,14.72
2023-05-08T03:36:31.460Z,14.71
2023-05-08T03:39:00.662Z,14.73
2023-05-08T03:41:28.482Z,14.72
2023-05-08T03:43:57.484Z,14.71
2023-05-08T03:46:26.559Z,14.67
2023-05-08T03:48:55.354Z,14.64
2023-05-08T03:51:23.921Z,14.62
2023-05-08T03:53:52.246Z,14.60
2023-05-08T03:56:20.057Z,14.61
2023-05-08T03:59:00.572Z,14.62
2023-05-08T04:01:40.851Z,14.61
2023-05-08T04:04:37.347Z,14.59
2023-05-08T04:07:27.606Z,14.55
2023-05-08T04:10:16.261Z,14.49
2023-05-08T04:13:04.875Z,14.43
2023-05-08T04:15:39.335Z,14.36
2023-05-08T04:18:14.763Z,14.34
2023-05-08T04:20:47.910Z,14.32
2023-05-08T04:23:21.959Z,14.32
2023-05-08T04:25:53.653Z,14.30
2023-05-08T04:28:22.397Z,14.31
2023-05-08T04:30:51.920Z,14.29
2023-05-08T04:33:19.732Z,14.28
2023-05-08T04:35:49.478Z,14.29
2023-05-08T04:38:17.102Z,14.32
2023-05-08T04:40:45.433Z,14.33
2023-05-08T04:43:13.149Z,14.34
2023-05-08T04:45:40.801Z,14.36
2023-05-08T04:48:08.376Z,14.38
2023-05-08T04:50:36.344Z,14.40
2023-05-08T04:53:04.166Z,14.41
2023-05-08T04:55:31.879Z,14.44
2023-05-08T04:57:59.676Z,14.47
2023-05-08T05:00:27.405Z,14.47
2023-05-08T05:02:55.005Z,14.48
2023-05-08T05:05:22.788Z,14.55
2023-05-08T05:07:50.690Z,14.59
2023-05-08T05:10:20.325Z,14.65
2023-05-08T05:12:47.883Z,14.73
2023-05-08T05:15:15.811Z,14.76
2023-05-08T05:17:43.990Z,14.78
2023-05-08T05:20:13.302Z,14.79
2023-05-08T05:22:41.100Z,14.80
2023-05-08T05:25:09.991Z,14.84
2023-05-08T05:27:37.636Z,14.88
2023-05-08T05:30:08.287Z,14.95
2023-05-08T05:32:36.025Z,15.02
2023-05-08T05:35:04.119Z,15.07
2023-05-08T05:37:31.786Z,15.09
2023-05-08T05:39:59.474Z,15.10
2023-05-08T05:42:27.090Z,15.16
2023-05-08T05:44:56.992Z,15.25
2023-05-08T05:47:25.245Z,15.36
2023-05-08T05:49:52.857Z,15.48
2023-05-08T05:52:20.448Z,15.54
2023-05-08T05:54:48.348Z,15.59
2023-05-08T05:57:16.109Z,15.65
2023-05-08T05:59:43.649Z,15.70
2023-05-08T06:02:18.465Z,15.75
2023-05-08T06:04:46.710Z,15.84
2023-05-08T06:07:15.261Z,15.93
2023-05-08T06:09:42.774Z,16.01
2023-05-08T06:12:12.027Z,16.04
2023-05-08T06:14:39.870Z,16.08
2023-05-08T06:17:34.253Z,16.16
2023-05-08T06:20:07.438Z,16.21
2023-05-08T06:22:35.001Z,16.27
2023-05-08T06:25:02.687Z,16.38
2023-05-08T06:27:30.280Z,16.48
2023-05-08T06:29:57.785Z,16.55
2023-05-08T06:32:25.456Z,16.62
2023-05-08T06:34:53.036Z,16.72
2023-05-08T06:37:20.596Z,16.81
2023-05-08T06:39:50.516Z,16.89
2023-05-08T06:42:22.272Z,17.01
2023-05-08T06:44:50.808Z,17.09
2023-05-08T06:47:19.329Z,17.18
2023-05-08T06:49:46.854Z,17.22
2023-05-08T06:52:14.452Z,17.27
2023-05-08T06:54:42.105Z,17.33
2023-05-08T06:57:11.071Z,17.37
2023-05-08T06:59:39.466Z,17.39
2023-05-08T07:02:07.718Z,17.41
2023-05-08T07:04:36.002Z,17.46
2023-05-08T07:07:03.687Z,17.52
2023-05-08T07:09:31.256Z,17.51
2023-05-08T07:11:58.853Z,17.48
2023-05-08T07:14:27.533Z,17.45
2023-05-08T07:16:55.061Z,17.47
2023-05-08T07:19:22.782Z,17.49
2023-05-08T07:21:50.862Z,17.54
2023-05-08T07:24:18.466Z,17.58
2023-05-08T07:26:46.018Z,17.59
2023-05-08T07:29:13.787Z,17.57
2023-05-08T07:31:41.760Z,17.54
2023-05-08T07:34:09.295Z,17.53
2023-05-08T07:36:36.864Z,17.59
2023-05-08T07:39:04.584Z,17.66
2023-05-08T07:41:32.463Z,17.74
2023-05-08T07:44:00.091Z,17.80
2023-05-08T07:46:27.644Z,17.86
2023-05-08T07:48:55.596Z,17.93
2023-05-08T07:51:23.128Z,18.01
2023-05-08T07:53:51.168Z,18.07
2023-05-08T07:56:18.732Z,18.09
2023-05-08T07:58:47.860Z,18.07
2023-05-08T08:01:18.063Z,18.05
2023-05-08T08:03:46.799Z,18.04
2023-05-08T08:06:14.610Z,18.03
2023-05-08T08:08:42.428Z,18.05
2023-05-08T08:11:09.992Z,18.06
2023-05-08T08:13:37.595Z,18.06
2023-05-08T08:16:06.298Z,18.05
2023-05-08T08:18:38.301Z,18.06
2023-05-08T08:21:08.854Z,18.12
2023-05-08T08:23:36.843Z,18.19
2023-05-08T08:26:04.610Z,18.26
2023-05-08T08:28:32.117Z,18.34
2023-05-08T08:30:59.884Z,18.43
2023-05-08T08:33:29.617Z,18.57
2023-05-08T08:35:57.225Z,18.63
2023-05-08T08:38:24.835Z,18.76
2023-05-08T08:40:53.125Z,18.97
2023-05-08T08:43:20.698Z,19.10
2023-05-08T08:45:48.413Z,19.15
2023-05-08T08:48:16.937Z,19.12
2023-05-08T08:50:53.103Z,19.12
2023-05-08T08:53:33.468Z,19.13
2023-05-08T08:56:02.149Z,19.14
2023-05-08T08:58:46.771Z,19.18
2023-05-08T09:01:19.404Z,19.38
2023-05-08T09:03:49.666Z,19.70
2023-05-08T09:06:19.228Z,19.86
2023-05-08T09:08:47.594Z,19.84
2023-05-08T09:11:15.253Z,19.84
2023-05-08T09:13:42.847Z,19.89
2023-05-08T09:16:10.824Z,20.19
2023-05-08T09:18:38.494Z,20.46
2023-05-08T09:21:07.109Z,20.59
2023-05-08T09:23:37.807Z,20.73
2023-05-08T09:26:05.414Z,20.89
2023-05-08T09:28:32.996Z,21.14
2023-05-08T09:31:01.646Z,21.30
2023-05-08T09:33:30.122Z,21.59
2023-05-08T09:35:58.295Z,21.75
2023-05-08T09:38:40.552Z,21.85
2023-05-08T09:41:17.016Z,21.84
2023-05-08T09:44:01.173Z,21.74
2023-05-08T09:46:29.918Z,21.58
2023-05-08T09:49:02.192Z,21.45
2023-05-08T09:51:32.352Z,21.38
2023-05-08T09:54:00.535Z,21.33
2023-05-08T09:56:39.345Z,21.29
2023-05-08T09:59:29.467Z,21.30
2023-05-08T10:01:58.087Z,21.30
2023-05-08T10:04:37.758Z,21.27
2023-05-08T10:07:05.473Z,21.18
2023-05-08T10:09:46.836Z,21.17
2023-05-08T10:12:18.741Z,21.24
2023-05-08T10:14:46.949Z,21.50
2023-05-08T10:17:25.042Z,21.76
2023-05-08T10:20:01.095Z,21.97
2023-05-08T10:22:29.572Z,22.11
2023-05-08T10:25:00.786Z,22.11
2023-05-08T10:27:55.252Z,22.14
2023-05-08T10:30:26.572Z,22.17
2023-05-08T10:32:58.384Z,22.16
2023-05-08T10:35:26.199Z,22.19
2023-05-08T10:37:56.279Z,22.21
2023-05-08T10:40:24.522Z,22.16
2023-05-08T10:42:52.303Z,22.22
2023-05-08T10:45:20.038Z,22.28
2023-05-08T10:48:18.281Z,22.44
2023-05-08T10:51:21.945Z,22.55
2023-05-08T10:54:23.556Z,22.67
2023-05-08T10:56:51.154Z,22.68
2023-05-08T10:59:20.456Z,22.64
2023-05-08T11:01:52.103Z,22.69
2023-05-08T11:04:24.042Z,22.73
2023-05-08T11:06:53.181Z,22.69
2023-05-08T11:09:28.604Z,22.68
2023-05-08T11:12:08.916Z,22.80
2023-05-08T11:14:42.658Z,22.87
2023-05-08T11:17:11.155Z,22.91
2023-05-08T11:19:38.996Z,22.86
2023-05-08T11:22:21.853Z,22.76
2023-05-08T11:25:05.491Z,22.69
2023-05-08T11:27:40.738Z,22.68
2023-05-08T11:30:33.473Z,22.71
2023-05-08T11:33:04.453Z,22.72
2023-05-08T11:35:55.783Z,22.72
2023-05-08T11:38:34.316Z,22.68
2023-05-08T11:41:22.072Z,22.65
2023-05-08T11:44:09.319Z,22.56
2023-05-08T11:46:53.535Z,22.45
2023-05-08T11:49:29.144Z,22.40
2023-05-08T11:51:59.789Z,22.35
2023-05-08T11:54:31.168Z,22.34
2023-05-08T11:56:59.637Z,22.37
2023-05-08T11:59:27.316Z,22.56
2023-05-08T12:04:25.918Z,22.86
2023-05-08T12:06:58.707Z,22.96
2023-05-08T12:09:27.049Z,22.98
2023-05-08T12:11:58.121Z,23.01
2023-05-08T12:14:25.862Z,23.09
2023-05-08T12:16:53.551Z,23.14
2023-05-08T12:19:21.179Z,23.10
2023-05-08T12:21:49.308Z,23.12
2023-05-08T12:24:23.361Z,23.14
2023-05-08T12:26:55.889Z,23.16
2023-05-08T12:29:23.815Z,23.24
2023-05-08T12:31:52.699Z,23.42
2023-05-08T12:34:21.422Z,23.51
2023-05-08T12:36:49.001Z,23.59
2023-05-08T12:39:18.812Z,23.64
2023-05-08T12:41:51.180Z,23.60
2023-05-08T12:44:24.303Z,23.49
2023-05-08T12:47:01.137Z,23.36
2023-05-08T12:49:31.181Z,23.24
2023-05-08T12:52:12.290Z,23.13
2023-05-08T12:54:46.699Z,23.06
2023-05-08T12:57:19.579Z,23.03
2023-05-08T12:59:47.477Z,22.99
2023-05-08T13:02:18.367Z,22.94
2023-05-08T13:04:46.696Z,22.92
2023-05-08T13:07:14.562Z,22.90
2023-05-08T13:10:03.558Z,22.86
2023-05-08T13:12:32.014Z,22.86
2023-05-08T13:15:00.379Z,22.89
2023-05-08T13:17:27.942Z,22.90
2023-05-08T13:19:55.483Z,22.89
2023-05-08T13:22:26.583Z,22.85
2023-05-08T13:24:54.221Z,22.85
2023-05-08T13:27:21.979Z,22.88
2023-05-08T13:29:49.553Z,22.94
2023-05-08T13:32:17.234Z,22.99
2023-05-08T13:34:50.419Z,23.00
2023-05-08T13:37:19.242Z,23.00
2023-05-08T13:39:46.816Z,22.99
2023-05-08T13:42:14.333Z,23.00
2023-05-08T13:44:41.928Z,23.00
2023-05-08T13:47:10.256Z,23.03
2023-05-08T13:49:37.903Z,23.00
2023-05-08T13:52:06.820Z,22.96
2023-05-08T13:54:34.386Z,23.02
2023-05-08T13:57:02.690Z,23.10
2023-05-08T13:59:31.344Z,23.20
2023-05-08T14:01:58.953Z,23.22
2023-05-08T14:04:26.864Z,23.22
2023-05-08T14:06:54.562Z,23.20
2023-05-08T14:09:22.155Z,23.19
2023-05-08T14:11:49.731Z,23.20
2023-05-08T14:14:17.283Z,23.20
2023-05-08T14:16:45.064Z,23.18
2023-05-08T14:19:12.644Z,23.21
2023-05-08T14:21:40.596Z,23.28
2023-05-08T14:24:09.036Z,23.33
2023-05-08T14:26:36.670Z,23.35
2023-05-08T14:29:05.273Z,23.37
2023-05-08T14:31:32.875Z,23.28
2023-05-08T14:34:00.457Z,23.22
2023-05-08T14:36:28.040Z,23.21
2023-05-08T14:38:55.590Z,23.21
2023-05-08T14:41:27.244Z,23.20
2023-05-08T14:43:55.015Z,23.16
2023-05-08T14:46:22.752Z,23.09
2023-05-08T14:48:51.132Z,23.05
2023-05-08T14:51:19.353Z,23.02
2023-05-08T14:53:47.038Z,22.99
2023-05-08T14:56:14.956Z,22.95
2023-05-08T14:58:42.702Z,22.87
2023-05-08T15:01:10.277Z,22.79
2023-05-08T15:03:38.031Z,22.69
2023-05-08T15:06:06.424Z,22.61
2023-05-08T15:08:34.036Z,22.49
2023-05-08T15:11:01.702Z,22.38
2023-05-08T15:13:29.288Z,22.31
2023-05-08T15:16:00.637Z,22.24
2023-05-08T15:18:28.738Z,22.16
2023-05-08T15:20:57.891Z,22.07
2023-05-08T15:23:28.389Z,21.96
2023-05-08T15:25:55.897Z,21.81
2023-05-08T15:28:23.596Z,21.70
2023-05-08T15:30:51.452Z,21.60
2023-05-08T15:33:19.127Z,21.48
2023-05-08T15:35:46.684Z,21.37
2023-05-08T15:38:14.319Z,21.30
2023-05-08T15:40:42.000Z,21.21
2023-05-08T15:43:09.620Z,21.13
2023-05-08T15:45:37.454Z,21.04
2023-05-08T15:48:05.164Z,20.91
2023-05-08T15:50:33.779Z,20.76
2023-05-08T15:53:01.460Z,20.62
2023-05-08T15:55:29.039Z,20.55
2023-05-08T15:57:56.692Z,20.50
2023-05-08T16:00:27.321Z,20.45
2023-05-08T16:02:57.923Z,20.41
2023-05-08T16:05:25.604Z,20.36
2023-05-08T16:07:55.409Z,20.31
2023-05-08T16:10:23.145Z,20.24
2023-05-08T16:12:51.141Z,20.17
2023-05-08T16:15:18.784Z,20.09
2023-05-08T16:17:46.543Z,20.04
2023-05-08T16:20:14.190Z,20.02
2023-05-08T16:22:41.780Z,19.98
2023-05-08T16:25:09.872Z,19.91
2023-05-08T16:27:37.499Z,19.81
2023-05-08T16:30:06.243Z,19.67
2023-05-08T16:32:34.210Z,19.51
2023-05-08T16:35:01.971Z,19.40
2023-05-08T16:37:29.557Z,19.33
2023-05-08T16:39:57.075Z,19.25
2023-05-08T16:42:24.743Z,19.22
2023-05-08T16:44:52.267Z,19.19
2023-05-08T16:47:19.994Z,19.18
2023-05-08T16:49:47.504Z,19.15
2023-05-08T16:52:15.141Z,19.14
2023-05-08T16:54:42.711Z,19.05
2023-05-08T16:57:10.282Z,18.98
2023-05-08T16:59:37.806Z,18.88
2023-05-08T17:02:05.577Z,18.80
2023-05-08T17:04:33.430Z,18.74
2023-05-08T17:07:01.057Z,18.68
2023-05-08T17:09:28.700Z,18.62
2023-05-08T17:11:58.153Z,18.57
2023-05-08T17:14:25.711Z,18.53
2023-05-08T17:16:53.255Z,18.48
2023-05-08T17:19:20.830Z,18.47
2023-05-08T17:21:48.492Z,18.43
2023-05-08T17:24:16.148Z,18.40
2023-05-08T17:26:43.650Z,18.36
2023-05-08T17:29:11.469Z,18.34
2023-05-08T17:31:39.079Z,18.32
2023-05-08T17:34:06.684Z,18.32
2023-05-08T17:36:34.265Z,18.31
2023-05-08T17:39:01.913Z,18.27
2023-05-08T17:41:29.460Z,18.23
2023-05-08T17:43:56.951Z,18.19
2023-05-08T17:46:24.594Z,18.16
2023-05-08T17:48:52.130Z,18.16
2023-05-08T17:51:19.645Z,18.14
2023-05-08T17:53:47.232Z,18.10
2023-05-08T17:56:20.243Z,18.10
2023-05-08T17:58:47.893Z,18.14
2023-05-08T18:01:15.561Z,18.12
2023-05-08T18:03:44.989Z,18.06
2023-05-08T18:06:17.248Z,18.00
2023-05-08T18:08:45.854Z,17.91
2023-05-08T18:11:17.449Z,17.86
2023-05-08T18:13:45.410Z,17.80
2023-05-08T18:16:17.421Z,17.78
2023-05-08T18:18:45.553Z,17.79
2023-05-08T18:21:13.478Z,17.77
2023-05-08T18:23:41.018Z,17.76
2023-05-08T18:26:12.998Z,17.76
2023-05-08T18:28:40.613Z,17.77
2023-05-08T18:31:08.457Z,17.78
2023-05-08T18:33:37.226Z,17.79
2023-05-08T18:36:06.926Z,17.78
2023-05-08T18:38:35.636Z,17.73
2023-05-08T18:41:06.292Z,17.73
2023-05-08T18:43:34.186Z,17.68
2023-05-08T18:46:09.147Z,17.70
2023-05-08T18:48:42.792Z,17.68
2023-05-08T18:51:10.832Z,17.65
2023-05-08T18:53:38.942Z,17.61
2023-05-08T18:56:06.588Z,17.57
2023-05-08T18:58:36.767Z,17.53
2023-05-08T19:01:06.231Z,17.51
2023-05-08T19:03:33.954Z,17.44
2023-05-08T19:06:01.489Z,17.40
2023-05-08T19:08:32.152Z,17.36
2023-05-08T19:11:02.101Z,17.33
2023-05-08T19:13:29.913Z,17.32
2023-05-08T19:15:57.622Z,17.32
2023-05-08T19:18:25.167Z,17.33
2023-05-08T19:20:52.766Z,17.33
2023-05-08T19:23:20.541Z,17.30
2023-05-08T19:25:48.292Z,17.29
2023-05-08T19:28:16.064Z,17.27
2023-05-08T19:30:46.932Z,17.27
2023-05-08T19:33:14.556Z,17.25
2023-05-08T19:35:45.274Z,17.23
2023-05-08T19:38:13.410Z,17.22
2023-05-08T19:40:52.505Z,17.20
2023-05-08T19:43:24.374Z,17.16
2023-05-08T19:45:52.191Z,17.13
2023-05-08T19:48:20.477Z,17.12
2023-05-08T19:50:48.219Z,17.08
2023-05-08T19:53:16.013Z,17.06
2023-05-08T19:55:43.674Z,17.02
2023-05-08T19:58:11.380Z,17.01
2023-05-08T20:00:39.008Z,16.97
2023-05-08T20:03:09.578Z,16.96
2023-05-08T20:05:37.198Z,16.93
2023-05-08T20:08:04.871Z,16.92
2023-05-08T20:10:32.536Z,16.89
2023-05-08T20:13:00.701Z,16.85
2023-05-08T20:15:28.288Z,16.83
2023-05-08T20:17:56.180Z,16.81
2023-05-08T20:20:23.865Z,16.79
2023-05-08T20:22:51.425Z,16.77
2023-05-08T20:25:19.281Z,16.75
2023-05-08T20:27:46.831Z,16.71
2023-05-08T20:30:14.848Z,16.67
2023-05-08T20:32:42.679Z,16.65
2023-05-08T20:35:10.272Z,16.64
2023-05-08T20:37:45.889Z,16.64
2023-05-08T20:40:15.182Z,16.61
2023-05-08T20:42:43.040Z,16.61
2023-05-08T20:45:11.440Z,16.58
2023-05-08T20:47:39.376Z,16.59
2023-05-08T20:50:07.536Z,16.59
2023-05-08T20:52:37.425Z,16.59
2023-05-08T20:55:06.564Z,16.57
2023-05-08T20:57:34.333Z,16.54
2023-05-08T21:00:01.908Z,16.51
2023-05-08T21:02:29.823Z,16.48
2023-05-08T21:04:57.466Z,16.47
2023-05-08T21:07:25.220Z,16.44
2023-05-08T21:10:00.176Z,16.41
2023-05-08T21:12:27.711Z,16.38
2023-05-08T21:14:59.650Z,16.36
2023-05-08T21:17:27.618Z,16.33
2023-05-08T21:19:56.972Z,16.29
2023-05-08T21:22:24.871Z,16.27
2023-05-08T21:24:52.414Z,16.25
2023-05-08T21:27:20.678Z,16.22
2023-05-08T21:29:48.262Z,16.19
2023-05-08T21:32:15.831Z,16.14
2023-05-08T21:34:43.510Z,16.12
2023-05-08T21:37:11.129Z,16.10
2023-05-08T21:39:38.830Z,16.08
2023-05-08T21:42:06.378Z,16.05
2023-05-08T21:44:33.964Z,16.02
2023-05-08T21:47:01.566Z,16.00
2023-05-08T21:49:29.170Z,15.99
2023-05-08T21:51:57.899Z,15.96
2023-05-08T21:54:25.479Z,15.94
2023-05-08T21:56:53.045Z,15.91
2023-05-08T21:59:20.858Z,15.91
2023-05-08T22:01:48.495Z,15.91
2023-05-08T22:04:16.103Z,15.89
2023-05-08T22:06:44.526Z,15.88
2023-05-08T22:09:12.162Z,15.87
2023-05-08T22:11:39.735Z,15.87
2023-05-08T22:14:07.339Z,15.88
2023-05-08T22:16:35.266Z,15.88
2023-05-08T22:19:02.987Z,15.88
2023-05-08T22:21:30.587Z,15.87
2023-05-08T22:23:58.126Z,15.87
2023-05-08T22:26:26.230Z,15.88
2023-05-08T22:28:53.860Z,15.86
2023-05-08T22:31:21.597Z,15.83
2023-05-08T22:33:49.140Z,15.81
2023-05-08T22:36:16.782Z,15.78
2023-05-08T22:38:44.779Z,15.75
2023-05-08T22:41:12.341Z,15.73
2023-05-08T22:43:40.072Z,15.70
2023-05-08T22:46:07.876Z,15.68
2023-05-08T22:48:36.175Z,15.69
2023-05-08T22:51:04.574Z,15.69
2023-05-08T22:53:32.079Z,15.68
2023-05-08T22:55:59.680Z,15.68
2023-05-08T22:58:29.148Z,15.68
2023-05-08T23:00:56.898Z,15.69
2023-05-08T23:03:24.533Z,15.68
2023-05-08T23:05:52.171Z,15.68
2023-05-08T23:08:19.851Z,15.67
2023-05-08T23:10:47.479Z,15.65
2023-05-08T23:13:15.255Z,15.65
2023-05-08T23:15:43.121Z,15.64
2023-05-08T23:18:10.738Z,15.63
2023-05-08T23:20:38.421Z,15.62
2023-05-08T23:23:07.351Z,15.62
2023-05-08T23:25:34.925Z,15.60
2023-05-08T23:28:02.460Z,15.59
2023-05-08T23:30:30.253Z,15.58
2023-05-08T23:32:57.818Z,15.56
2023-05-08T23:35:25.508Z,15.55
2023-05-08T23:37:53.073Z,15.56
2023-05-08T23:40:20.753Z,15.56
2023-05-08T23:42:48.372Z,15.56
2023-05-08T23:45:16.545Z,15.55
2023-05-08T23:47:44.368Z,15.56
2023-05-08T23:50:12.558Z,15.58
2023-05-08T23:52:41.487Z,15.56
2023-05-08T23:55:09.972Z,15.56
2023-05-08T23:57:37.561Z,15.57
